Time;durP1;ratioP1;P1;durP2;ratioP2;P2;SDS_P1;SDS_P2;PMS_P1;PMS_P2;Temp;Humidity;BMP_temperature;BMP_pressure;BME280_temperature;BME280_humidity;BME280_pressure;Samples;Min_cycle;Max_cycle;Signal;HPM_P1;HPM_P2
2022/12/25 00:04:02;;;;;;;21.58;13.10;;;;;;;1.88;100.00;100520.59;10536491;28;20419;-72
2022/12/25 00:09:03;;;;;;;21.52;13.13;;;;;;;1.99;100.00;100539.00;10536926;28;20040;-72
2022/12/25 00:14:03;;;;;;;23.52;13.48;;;;;;;2.62;100.00;100631.53;10536273;28;20040;-71
2022/12/25 00:19:04;;;;;;;23.38;13.18;;;;;;;2.10;100.00;100549.56;10539349;28;20392;-72
2022/12/25 00:24:05;;;;;;;23.33;13.98;;;;;;;2.11;100.00;100560.88;10543903;28;20453;-72
2022/12/25 00:29:06;;;;;;;19.48;12.82;;;;;;;2.45;100.00;100630.09;10544243;28;20040;-72
2022/12/25 00:34:07;;;;;;;21.08;13.63;;;;;;;2.42;100.00;100635.56;10585119;28;20035;-71
2022/12/25 00:39:08;;;;;;;18.80;13.23;;;;;;;2.36;100.00;100630.75;10585830;28;20171;-72
2022/12/25 00:44:12;;;;;;;23.15;13.07;;;;;;;2.29;100.00;100631.19;10585564;28;20060;-72
2022/12/25 00:49:13;;;;;;;20.20;12.98;;;;;;;2.05;100.00;100583.13;10586766;28;20083;-74
2022/12/25 00:54:13;;;;;;;21.98;13.15;;;;;;;2.32;100.00;100624.06;10585394;28;20499;-71
2022/12/25 00:59:14;;;;;;;20.60;13.23;;;;;;;1.98;100.00;100567.00;10585338;28;20039;-72
2022/12/25 01:04:15;;;;;;;19.90;13.10;;;;;;;2.42;100.00;100639.06;10584464;28;20040;-72
2022/12/25 01:14:35;;;;;;;20.95;14.10;;;;;;;2.43;100.00;100645.97;10584540;28;20407;-72
2022/12/25 01:19:36;;;;;;;20.08;13.95;;;;;;;2.44;100.00;100649.41;10584172;28;20044;-72
2022/12/25 01:24:37;;;;;;;24.73;15.43;;;;;;;1.99;100.00;100570.44;10584429;28;20039;-72
2022/12/25 01:29:38;;;;;;;23.55;14.55;;;;;;;2.50;100.00;100656.84;10584957;28;20040;-72
2022/12/25 01:34:38;;;;;;;23.00;13.70;;;;;;;2.47;100.00;100647.41;10584160;28;20043;-72
2022/12/25 01:39:39;;;;;;;24.17;15.35;;;;;;;2.43;100.00;100653.00;10583465;28;20411;-72
2022/12/25 01:44:47;;;;;;;26.25;16.25;;;;;;;2.38;100.00;100655.94;10583349;28;20146;-72
2022/12/25 01:49:49;;;;;;;28.75;16.38;;;;;;;1.91;100.00;100586.69;10583896;28;20059;-72
2022/12/25 01:55:10;;;;;;;31.67;15.70;;;;;;;1.86;100.00;100569.66;10583895;28;20082;-72
2022/12/25 02:00:12;;;;;;;23.63;14.32;;;;;;;1.85;100.00;100588.91;10564866;28;20044;-72
2022/12/25 02:05:32;;;;;;;19.77;13.23;;;;;;;2.11;100.00;100656.06;10582135;28;20122;-72
2022/12/25 02:10:32;;;;;;;20.80;12.68;;;;;;;1.60;100.00;100591.41;10582686;28;20035;-72
2022/12/25 02:15:59;;;;;;;19.77;11.98;;;;;;;2.00;100.00;100663.81;10582686;28;20047;-72
2022/12/25 02:21:37;;;;;;;19.27;11.30;;;;;;;1.95;100.00;100666.78;10581136;28;20690;-72
2022/12/25 02:27:06;;;;;;;15.38;10.70;;;;;;;1.30;100.00;100578.63;10581270;28;20040;-72
2022/12/25 02:32:17;;;;;;;19.23;11.43;;;;;;;1.63;100.00;100645.38;10582303;28;20517;-72
2022/12/25 02:37:23;;;;;;;17.63;12.23;;;;;;;1.71;100.00;100671.06;10581366;28;20040;-72
2022/12/25 03:31:15;;;;;;;35.75;13.63;;;;;;;1.45;100.00;100725.16;10579044;28;20036;-72
2022/12/25 03:36:34;;;;;;;29.75;12.85;;;;;;;1.51;100.00;100709.88;10579939;28;20168;-72
2022/12/25 04:40:30;;;;;;;16.67;10.55;;;;;;;1.52;100.00;100687.97;10629405;27;20043;-72
2022/12/25 04:45:31;;;;;;;15.98;10.15;;;;;;;1.80;100.00;100746.41;10618414;27;20040;-72
2022/12/25 04:50:32;;;;;;;15.32;9.10;;;;;;;1.44;100.00;100699.91;10574282;28;20056;-72
2022/12/25 04:55:32;;;;;;;15.48;8.13;;;;;;;1.95;100.00;100773.38;10577440;28;20134;-71
2022/12/25 05:00:33;;;;;;;14.60;8.93;;;;;;;1.94;100.00;100782.97;10583224;28;20039;-72
2022/12/25 05:05:39;;;;;;;15.40;8.65;;;;;;;1.95;100.00;100776.81;10618724;27;20046;-72
2022/12/25 05:10:40;;;;;;;12.98;7.35;;;;;;;1.89;100.00;100807.84;10607104;28;20079;-71
2022/12/25 05:15:41;;;;;;;16.23;9.75;;;;;;;1.44;100.00;100744.41;10624584;28;20120;-72
2022/12/25 05:20:49;;;;;;;22.02;11.65;;;;;;;1.82;100.00;100818.72;10607453;28;20043;-71
2022/12/25 05:25:50;;;;;;;18.90;9.02;;;;;;;1.79;100.00;100825.91;10582629;28;20075;-72
2022/12/25 05:30:54;;;;;;;17.33;9.32;;;;;;;1.63;100.00;100797.25;10582610;28;20039;-73
2022/12/25 05:35:55;;;;;;;20.42;9.20;;;;;;;1.82;100.00;100826.56;10581785;28;20036;-73
2022/12/25 05:40:57;;;;;;;14.60;7.80;;;;;;;1.78;100.00;100824.22;10581912;28;20042;-73
2022/12/25 05:51:17;;;;;;;10.18;6.20;;;;;;;2.04;100.00;100805.03;10567987;27;20174;-72
2022/12/25 05:56:18;;;;;;;14.98;9.68;;;;;;;1.89;100.00;100799.97;10504142;28;20048;-72
2022/12/25 06:01:22;;;;;;;12.88;7.38;;;;;;;2.17;100.00;100831.25;10500146;28;20047;-72
2022/12/25 06:06:22;;;;;;;15.10;7.93;;;;;;;1.85;100.00;100773.09;10525520;28;20045;-71
2022/12/25 06:11:23;;;;;;;13.85;7.60;;;;;;;1.77;100.00;100755.28;10514120;28;20099;-72
2022/12/25 06:16:24;;;;;;;19.05;7.93;;;;;;;2.37;100.00;100829.09;10489198;28;20045;-71
2022/12/25 06:21:25;;;;;;;16.08;9.13;;;;;;;1.98;100.00;100757.44;10496070;28;20131;-72
2022/12/25 06:26:26;;;;;;;13.50;7.40;;;;;;;2.40;100.00;100831.50;10530991;28;20044;-73
2022/12/25 06:31:27;;;;;;;12.63;6.97;;;;;;;2.37;100.00;100832.53;10530600;28;20089;-73
2022/12/25 06:36:28;;;;;;;11.63;6.32;;;;;;;1.50;100.00;100670.72;10530249;28;20043;-71
2022/12/25 06:41:29;;;;;;;15.43;7.35;;;;;;;2.64;100.00;100842.13;10530070;28;20067;-72
2022/12/25 06:46:30;;;;;;;12.80;7.00;;;;;;;2.72;100.00;100824.91;10529357;28;20408;-72
2022/12/25 06:51:31;;;;;;;10.90;6.30;;;;;;;2.86;100.00;100838.84;10529610;28;20045;-74
2022/12/25 06:56:33;;;;;;;11.15;6.20;;;;;;;2.94;100.00;100845.25;10527812;28;20040;-72
2022/12/25 07:01:35;;;;;;;11.18;6.93;;;;;;;3.03;100.00;100849.00;10506790;28;20032;-71
2022/12/25 07:06:36;;;;;;;11.10;6.43;;;;;;;3.17;100.00;100853.28;10500890;28;20049;-73
2022/12/25 07:11:37;;;;;;;11.10;6.20;;;;;;;3.00;100.00;100812.50;10500629;28;20041;-73
2022/12/25 07:16:38;;;;;;;11.27;6.78;;;;;;;3.24;100.00;100843.22;10500083;28;20070;-73
2022/12/25 07:21:38;;;;;;;10.15;6.60;;;;;;;3.47;100.00;100838.91;10493848;28;20131;-72
2022/12/25 07:26:39;;;;;;;11.27;7.22;;;;;;;3.47;100.00;100834.53;10500739;28;20051;-71
2022/12/25 07:31:40;;;;;;;12.02;6.57;;;;;;;3.48;100.00;100841.47;10464885;28;20049;-71
2022/12/25 07:36:41;;;;;;;10.98;6.57;;;;;;;2.98;100.00;100733.00;10459063;28;20488;-72
2022/12/25 07:41:42;;;;;;;11.85;6.60;;;;;;;3.74;100.00;100833.47;10458429;28;20037;-72
2022/12/25 07:46:43;;;;;;;11.90;6.63;;;;;;;3.74;100.00;100836.09;10458219;28;20092;-72
2022/12/25 07:51:44;;;;;;;11.35;6.93;;;;;;;3.69;100.00;100818.03;10457187;28;20072;-72
2022/12/25 07:56:45;;;;;;;12.50;7.50;;;;;;;3.71;100.00;100826.66;10457752;28;20065;-72
2022/12/25 08:01:49;;;;;;;12.80;7.55;;;;;;;3.81;100.00;100818.94;10458008;28;20083;-72
2022/12/25 08:06:49;;;;;;;12.82;7.22;;;;;;;3.97;100.00;100819.47;10458545;28;20531;-72
2022/12/25 08:11:50;;;;;;;12.70;7.20;;;;;;;3.88;100.00;100793.88;10456562;28;20068;-72
2022/12/25 08:16:51;;;;;;;12.98;7.57;;;;;;;4.10;100.00;100808.91;10456743;28;20064;-72
2022/12/25 08:21:51;;;;;;;12.23;7.05;;;;;;;3.85;100.00;100723.97;10456311;28;20412;-72
2022/12/25 08:26:52;;;;;;;17.13;8.85;;;;;;;4.28;100.00;100807.50;10457181;28;20095;-72
2022/12/25 08:31:53;;;;;;;14.80;8.93;;;;;;;4.39;100.00;100806.69;10456034;28;20047;-73
2022/12/25 08:36:54;;;;;;;15.32;8.77;;;;;;;3.90;100.00;100726.28;10457141;28;20120;-72
2022/12/25 08:41:55;;;;;;;15.45;8.45;;;;;;;4.14;100.00;100777.94;10456003;28;20045;-72
2022/12/25 08:46:56;;;;;;;14.20;8.02;;;;;;;3.34;100.00;100645.47;10455914;28;20079;-72
2022/12/25 08:51:56;;;;;;;12.70;8.07;;;;;;;3.57;100.00;100696.31;10456048;28;20032;-72
2022/12/25 08:56:57;;;;;;;13.93;8.80;;;;;;;4.23;100.00;100795.66;10455228;28;20041;-72
2022/12/25 09:01:58;;;;;;;13.00;8.05;;;;;;;4.04;100.00;100714.72;10455572;28;20033;-72
2022/12/25 09:06:58;;;;;;;14.60;8.55;;;;;;;4.56;100.00;100792.25;10454904;28;20527;-72
2022/12/25 09:11:59;;;;;;;17.10;9.45;;;;;;;4.39;100.00;100759.34;10454157;28;20032;-72
2022/12/25 09:17:00;;;;;;;14.88;8.75;;;;;;;4.50;100.00;100772.50;10455184;28;20052;-73
2022/12/25 09:22:01;;;;;;;18.05;8.88;;;;;;;4.63;100.00;100771.56;10465621;28;20098;-73
2022/12/25 09:27:02;;;;;;;14.27;9.20;;;;;;;4.61;99.88;100773.44;10472182;28;20036;-72
2022/12/25 09:32:02;;;;;;;14.32;8.85;;;;;;;4.66;100.00;100773.94;10454420;28;20049;-72
2022/12/25 09:37:03;;;;;;;15.40;8.57;;;;;;;4.89;99.92;100785.31;10485275;28;20097;-72
2022/12/25 09:42:13;;;;;;;15.95;8.88;;;;;;;4.73;98.78;100778.63;10495557;28;20040;-72
2022/12/25 09:47:22;;;;;;;15.80;9.23;;;;;;;4.79;98.89;100778.16;10495103;28;20064;-72
2022/12/25 09:52:29;;;;;;;14.93;8.95;;;;;;;4.80;98.51;100755.28;10486991;28;20048;-72
2022/12/25 09:57:31;;;;;;;14.93;9.55;;;;;;;4.86;98.71;100773.22;10453678;28;20120;-72
2022/12/25 10:02:49;;;;;;;16.52;9.20;;;;;;;4.74;97.40;100747.88;10453854;28;20076;-73
2022/12/25 10:07:53;;;;;;;14.45;8.60;;;;;;;4.98;98.02;100772.25;10454684;28;20103;-72
2022/12/25 10:13:21;;;;;;;14.40;9.63;;;;;;;5.03;95.39;100780.63;10453162;28;20102;-72
2022/12/25 10:18:49;;;;;;;16.45;9.25;;;;;;;4.98;95.45;100781.97;10454292;28;20094;-73
2022/12/25 10:24:23;;;;;;;15.63;9.90;;;;;;;4.75;96.25;100776.69;10453534;28;20493;-72
2022/12/25 10:29:29;;;;;;;15.48;9.70;;;;;;;4.72;97.31;100762.94;10480410;28;20484;-72
2022/12/25 10:34:31;;;;;;;15.50;9.88;;;;;;;4.39;96.71;100690.94;10455622;28;20045;-72
2022/12/25 10:39:32;;;;;;;13.88;9.20;;;;;;;5.05;96.52;100775.25;10488110;28;20040;-72
2022/12/25 10:44:33;;;;;;;17.38;9.48;;;;;;;4.77;95.77;100753.72;10501095;28;20036;-72
2022/12/25 10:49:37;;;;;;;16.33;9.48;;;;;;;5.07;95.82;100780.41;10502273;28;20404;-72
2022/12/25 10:54:38;;;;;;;18.50;9.63;;;;;;;5.05;95.68;100777.88;10498841;28;20048;-72
2022/12/25 10:59:54;;;;;;;14.45;9.93;;;;;;;4.93;94.30;100792.84;10496730;28;20040;-72
2022/12/25 11:05:04;;;;;;;16.13;10.30;;;;;;;4.82;94.40;100795.50;10465438;28;20455;-72
2022/12/25 11:10:25;;;;;;;14.95;9.85;;;;;;;4.69;93.62;100771.91;10459713;28;20519;-72
2022/12/25 11:15:47;;;;;;;17.83;10.75;;;;;;;4.34;93.30;100724.69;10460080;28;20131;-72
2022/12/25 11:20:50;;;;;;;18.67;11.40;;;;;;;4.55;94.94;100778.25;10459008;28;20071;-72
2022/12/25 11:25:57;;;;;;;16.42;10.52;;;;;;;4.62;94.49;100790.94;10459774;28;20037;-72
2022/12/25 11:31:20;;;;;;;15.57;10.85;;;;;;;4.72;93.98;100805.03;10459198;28;20044;-73
2022/12/25 11:36:24;;;;;;;21.75;11.13;;;;;;;4.68;94.54;100803.63;10455501;28;20037;-72
2022/12/25 11:41:30;;;;;;;20.55;10.48;;;;;;;4.65;94.45;100795.97;10458599;28;20049;-72
2022/12/25 11:46:44;;;;;;;18.90;10.20;;;;;;;4.65;94.38;100812.59;10457603;28;20051;-72
2022/12/25 11:51:49;;;;;;;30.17;14.60;;;;;;;4.50;95.17;100795.34;10458337;28;20044;-72
2022/12/25 11:56:49;;;;;;;;;;;;;;;4.79;94.95;100824.69;10458037;28;20520;-72
2022/12/25 12:02:17;;;;;;;16.20;10.57;;;;;;;4.70;94.95;100828.03;10458176;28;20006;-72
2022/12/25 12:07:21;;;;;;;17.50;11.15;;;;;;;4.69;95.37;100827.16;10457318;28;20520;-72
2022/12/25 12:12:49;;;;;;;14.32;9.90;;;;;;;4.80;95.38;100831.63;10457134;28;20053;-72
2022/12/25 12:17:50;;;;;;;19.23;10.93;;;;;;;4.23;95.74;100748.31;10457390;28;20069;-72
2022/12/25 12:22:51;;;;;;;15.77;10.30;;;;;;;4.28;95.67;100756.72;10457467;28;20477;-72
2022/12/25 12:27:58;;;;;;;19.45;12.48;;;;;;;4.21;94.98;100755.47;10456674;28;20045;-72
2022/12/25 12:33:02;;;;;;;18.25;10.07;;;;;;;4.66;95.76;100856.34;10456861;28;20455;-71
2022/12/25 12:38:14;;;;;;;18.75;11.57;;;;;;;4.72;95.35;100863.78;10456585;28;20041;-72
2022/12/25 12:43:28;;;;;;;18.65;10.20;;;;;;;4.65;94.89;100859.13;10455839;28;20040;-72
2022/12/25 12:48:37;;;;;;;16.52;11.02;;;;;;;4.60;94.81;100864.72;10456653;28;20092;-71
2022/12/25 12:53:41;;;;;;;15.07;10.65;;;;;;;4.57;95.85;100860.53;10455235;28;20083;-74
2022/12/25 12:58:48;;;;;;;18.45;11.45;;;;;;;4.45;95.92;100852.72;10454234;28;20499;-73
2022/12/25 13:04:11;;;;;;;18.83;11.13;;;;;;;4.51;96.17;100868.06;10455153;28;20040;-74
2022/12/25 13:09:33;;;;;;;16.90;10.73;;;;;;;4.45;96.02;100871.16;10455664;28;20045;-71
2022/12/25 13:14:36;;;;;;;18.40;10.82;;;;;;;4.42;96.52;100860.84;10455333;28;20455;-72
2022/12/25 13:19:42;;;;;;;18.45;12.27;;;;;;;4.44;96.32;100874.75;10455115;28;20079;-72
2022/12/25 13:24:57;;;;;;;15.43;10.13;;;;;;;3.51;96.02;100733.53;10457586;28;20459;-73
2022/12/25 13:29:58;;;;;;;19.25;12.45;;;;;;;4.25;96.41;100859.50;10464634;28;20420;-73
2022/12/25 13:35:00;;;;;;;20.08;12.23;;;;;;;4.45;96.46;100900.09;10458817;28;20037;-73
2022/12/25 13:40:04;;;;;;;19.73;12.00;;;;;;;4.00;96.63;100831.56;10492258;28;20062;-73
2022/12/25 13:45:17;;;;;;;16.77;10.38;;;;;;;3.12;96.28;100705.78;10469061;28;20040;-73
2022/12/25 13:50:30;;;;;;;16.55;10.55;;;;;;;3.84;97.36;100851.09;10480739;28;20059;-73
2022/12/25 13:55:32;;;;;;;20.40;11.95;;;;;;;3.99;97.11;100904.31;10439358;28;20099;-73
2022/12/25 14:00:43;;;;;;;24.52;10.95;;;;;;;3.95;98.15;100886.25;10429270;28;20148;-75
2022/12/25 14:05:45;;;;;;;18.95;12.05;;;;;;;3.91;98.30;100911.91;10492552;28;20045;-75
2022/12/25 14:10:50;;;;;;;19.67;11.75;;;;;;;3.83;98.80;100898.53;10439357;28;20052;-73
2022/12/25 14:15:53;;;;;;;18.05;12.05;;;;;;;3.88;98.90;100917.41;10446937;28;20404;-74
2022/12/25 14:21:15;;;;;;;21.05;11.30;;;;;;;3.78;99.25;100908.50;10434977;28;20037;-76
2022/12/25 14:26:26;;;;;;;19.40;12.00;;;;;;;3.82;99.82;100921.31;10437603;28;20152;-79
2022/12/25 14:31:28;;;;;;;25.13;12.43;;;;;;;3.32;99.33;100852.22;10443855;28;20103;-77
2022/12/25 14:36:31;;;;;;;24.38;12.85;;;;;;;3.70;99.46;100923.97;10433727;28;20032;-76
2022/12/25 14:41:36;;;;;;;22.67;12.80;;;;;;;3.18;99.66;100858.44;10441562;28;20040;-86
2022/12/25 14:46:37;;;;;;;21.88;13.30;;;;;;;3.41;99.62;100901.47;10442201;28;20041;-75
2022/12/25 14:51:38;;;;;;;22.42;13.30;;;;;;;3.41;99.70;100919.84;10436803;28;20067;-76
2022/12/25 14:56:45;;;;;;;23.92;14.50;;;;;;;3.54;99.93;100943.47;10433018;28;20037;-76
2022/12/25 15:01:52;;;;;;;19.38;12.90;;;;;;;3.03;100.00;100858.69;10396881;28;20486;-75
2022/12/25 15:06:58;;;;;;;21.48;13.73;;;;;;;3.48;100.00;100940.44;10404215;28;20379;-75
2022/12/25 15:11:59;;;;;;;22.77;12.77;;;;;;;3.37;100.00;100935.91;10398390;28;20074;-77
2022/12/25 15:17:00;;;;;;;21.98;13.95;;;;;;;3.38;100.00;100953.34;10398341;28;20088;-77
2022/12/25 15:22:02;;;;;;;23.67;13.63;;;;;;;3.35;100.00;100945.69;10401854;28;20053;-73
2022/12/25 15:27:04;;;;;;;22.33;14.00;;;;;;;3.28;100.00;100937.41;10403421;28;20053;-73
2022/12/25 15:32:05;;;;;;;17.88;11.40;;;;;;;3.10;100.00;100933.41;10394209;28;20031;-71
2022/12/25 15:37:05;;;;;;;24.25;14.85;;;;;;;3.11;100.00;100935.09;10390311;28;20040;-73
2022/12/25 15:42:17;;;;;;;23.98;13.65;;;;;;;3.11;100.00;100953.47;10402672;28;20037;-71
2022/12/25 15:47:18;;;;;;;22.13;13.82;;;;;;;2.67;100.00;100908.31;10428163;28;20545;-76
2022/12/25 15:52:21;;;;;;;30.65;20.02;;;;;;;2.88;100.00;100966.38;10420241;28;20049;-71
2022/12/25 15:57:22;;;;;;;20.85;13.85;;;;;;;2.23;100.00;100851.81;10422442;28;20045;-76
2022/12/25 16:02:23;;;;;;;21.77;13.93;;;;;;;2.31;100.00;100874.06;10414262;28;20119;-77
2022/12/25 16:07:24;;;;;;;26.92;14.10;;;;;;;2.81;100.00;100959.84;10441296;28;20112;-76
2022/12/25 16:12:25;;;;;;;23.73;14.75;;;;;;;2.62;100.00;100914.81;10458241;28;20132;-77
2022/12/25 16:17:26;;;;;;;23.95;14.20;;;;;;;2.37;100.00;100878.91;10456368;28;20182;-77
2022/12/25 16:22:27;;;;;;;24.85;15.00;;;;;;;2.79;100.00;100974.88;10457401;28;20037;-77
2022/12/25 16:27:28;;;;;;;28.15;14.93;;;;;;;2.69;100.00;100966.78;10455650;28;20056;-77
2022/12/25 16:32:29;;;;;;;23.10;13.68;;;;;;;2.74;100.00;100969.91;10455177;28;20037;-76
2022/12/25 16:37:30;;;;;;;23.58;13.63;;;;;;;2.67;100.00;100941.59;10417341;28;20041;-76
2022/12/25 16:42:31;;;;;;;23.67;14.85;;;;;;;2.42;100.00;100893.41;10408694;28;20080;-77
2022/12/25 16:47:32;;;;;;;25.02;14.80;;;;;;;2.47;100.00;100888.66;10411896;28;20505;-77
2022/12/25 16:52:34;;;;;;;26.55;15.35;;;;;;;2.78;100.00;100954.81;10409417;28;20132;-77
2022/12/25 16:57:35;;;;;;;24.23;14.70;;;;;;;2.66;100.00;100947.75;10422060;28;20041;-77
2022/12/25 17:02:36;;;;;;;25.20;16.15;;;;;;;2.71;100.00;100964.88;10414116;28;20052;-77
2022/12/25 17:07:36;;;;;;;30.30;16.98;;;;;;;2.71;100.00;100954.38;10412907;28;20041;-77
2022/12/25 17:12:37;;;;;;;26.23;15.82;;;;;;;2.80;100.00;100955.56;10413210;28;20124;-76
2022/12/25 17:17:38;;;;;;;26.88;16.25;;;;;;;2.58;100.00;100914.19;10413679;28;20043;-77
2022/12/25 17:22:39;;;;;;;26.85;16.05;;;;;;;2.83;100.00;100959.75;10413803;28;20501;-76
2022/12/25 17:27:39;;;;;;;28.55;17.20;;;;;;;2.80;100.00;100960.81;10414736;28;20045;-77
2022/12/25 17:32:40;;;;;;;24.67;15.35;;;;;;;2.78;100.00;100954.81;10412966;28;20095;-76
2022/12/25 17:37:41;;;;;;;26.50;15.98;;;;;;;2.59;100.00;100931.59;10413401;28;20053;-76
2022/12/25 17:42:42;;;;;;;29.13;17.88;;;;;;;2.70;100.00;100947.47;10413532;28;20437;-76
2022/12/25 17:47:42;;;;;;;28.90;17.48;;;;;;;2.31;100.00;100876.69;10412632;28;20163;-76
2022/12/25 17:52:43;;;;;;;28.48;17.00;;;;;;;2.78;100.00;100960.06;10412237;28;20037;-76
2022/12/25 17:57:44;;;;;;;27.73;16.20;;;;;;;2.59;100.00;100920.25;10412301;28;20042;-77
2022/12/25 18:02:45;;;;;;;26.50;15.88;;;;;;;1.88;100.00;100814.81;10413160;28;20051;-76
2022/12/25 18:07:46;;;;;;;28.70;15.80;;;;;;;2.78;100.00;100952.19;10411901;28;20055;-77
2022/12/25 18:12:47;;;;;;;27.73;16.15;;;;;;;2.79;100.00;100967.00;10412376;28;20063;-75
2022/12/25 18:17:48;;;;;;;31.50;17.08;;;;;;;2.76;100.00;100963.75;10412746;28;20037;-76
2022/12/25 18:22:49;;;;;;;29.15;15.55;;;;;;;2.70;100.00;100963.19;10411568;28;20041;-75
2022/12/25 18:27:50;;;;;;;28.95;16.08;;;;;;;2.64;100.00;100961.00;10417025;28;20091;-75
2022/12/25 18:32:51;;;;;;;25.88;15.18;;;;;;;2.55;100.00;100951.13;10448115;28;20451;-76
2022/12/25 18:37:52;;;;;;;25.75;14.68;;;;;;;2.60;100.00;100938.50;10452966;28;20041;-76
2022/12/25 18:42:53;;;;;;;32.55;13.50;;;;;;;2.77;100.00;100955.75;10452811;28;20431;-76
2022/12/25 18:47:55;;;;;;;24.33;13.80;;;;;;;2.62;100.00;100930.56;10441907;28;20066;-75
2022/12/25 18:52:56;;;;;;;28.85;14.57;;;;;;;2.66;100.00;100945.13;10437650;28;20092;-76
2022/12/25 18:57:57;;;;;;;25.52;14.32;;;;;;;2.71;100.00;100941.25;10417714;28;20094;-75
2022/12/25 19:02:58;;;;;;;25.02;12.32;;;;;;;2.69;100.00;100937.94;10430675;28;20132;-76
2022/12/25 19:07:59;;;;;;;30.52;13.23;;;;;;;2.58;100.00;100919.44;10419384;28;20098;-77
2022/12/25 19:12:59;;;;;;;20.38;11.73;;;;;;;2.74;100.00;100935.81;10417675;28;20048;-78
2022/12/25 19:18:01;;;;;;;25.27;12.48;;;;;;;2.63;100.00;100927.84;10417933;28;20129;-75
2022/12/25 19:23:02;;;;;;;26.17;13.23;;;;;;;2.26;100.00;100875.19;10417709;28;20052;-75
2022/12/25 19:28:03;;;;;;;31.23;14.25;;;;;;;2.59;100.00;100942.09;10418687;28;20508;-75
2022/12/25 19:33:05;;;;;;;25.15;12.90;;;;;;;2.28;100.00;100885.59;10422946;28;20038;-75
2022/12/25 19:38:05;;;;;;;23.00;12.25;;;;;;;2.64;100.00;100929.50;10458732;28;20562;-76
2022/12/25 19:43:06;;;;;;;26.42;13.07;;;;;;;2.70;100.00;100936.97;10459073;28;20090;-76
2022/12/25 19:48:07;;;;;;;23.70;12.48;;;;;;;2.59;100.00;100900.13;10457150;28;20060;-76
2022/12/25 19:53:08;;;;;;;24.08;13.30;;;;;;;2.70;100.00;100926.47;10457668;28;20179;-77
2022/12/25 19:58:09;;;;;;;26.08;13.02;;;;;;;2.59;100.00;100921.09;10457661;28;20052;-76
2022/12/25 20:03:10;;;;;;;26.73;13.10;;;;;;;2.63;100.00;100940.09;10458149;28;20056;-77
2022/12/25 20:08:10;;;;;;;22.70;12.75;;;;;;;2.16;100.00;100853.16;10457330;28;20095;-76
2022/12/25 20:13:11;;;;;;;28.35;13.77;;;;;;;2.51;100.00;100920.75;10457455;28;20106;-75
2022/12/25 20:18:13;;;;;;;25.40;12.50;;;;;;;2.67;100.00;100929.31;10454288;28;20037;-76
2022/12/25 20:23:13;;;;;;;27.58;13.98;;;;;;;2.24;100.00;100856.13;10374050;28;20053;-77
2022/12/25 20:28:14;;;;;;;19.95;11.25;;;;;;;2.27;100.00;100866.41;10374905;28;20397;-76
2022/12/25 20:33:15;;;;;;;23.02;12.70;;;;;;;2.70;100.00;100950.09;10374578;28;20052;-76
2022/12/25 20:38:16;;;;;;;27.70;13.18;;;;;;;2.50;100.00;100914.69;10374395;28;20088;-76
2022/12/25 20:43:16;;;;;;;27.63;13.90;;;;;;;2.70;100.00;100946.63;10375098;28;20042;-76
2022/12/25 20:48:17;;;;;;;23.63;12.60;;;;;;;2.03;100.00;100853.16;10374243;28;20068;-77
2022/12/25 20:53:19;;;;;;;25.95;13.52;;;;;;;2.62;100.00;100951.53;10374677;28;20080;-76
2022/12/25 20:58:19;;;;;;;25.25;13.57;;;;;;;2.46;100.00;100931.56;10374262;28;20052;-76
2022/12/25 21:03:20;;;;;;;25.90;11.52;;;;;;;2.65;100.00;100941.69;10373806;28;20038;-77
2022/12/25 21:08:24;;;;;;;29.80;13.02;;;;;;;2.33;100.00;100890.53;10373054;28;20069;-76
2022/12/25 21:13:29;;;;;;;29.70;13.53;;;;;;;2.74;100.00;100955.97;10374774;28;20049;-77
2022/12/25 21:18:30;;;;;;;26.10;12.25;;;;;;;2.78;100.00;100951.34;10372805;28;20073;-77
2022/12/25 21:23:35;;;;;;;23.02;12.85;;;;;;;2.21;100.00;100852.84;10373973;28;20494;-77
2022/12/25 21:28:36;;;;;;;23.83;12.02;;;;;;;2.53;100.00;100918.88;10371117;28;20046;-76
2022/12/25 21:33:52;;;;;;;25.10;12.50;;;;;;;2.63;100.00;100943.59;10373333;28;20041;-77
2022/12/25 21:39:03;;;;;;;25.70;12.70;;;;;;;2.66;100.00;100940.75;10372174;28;20413;-77
2022/12/25 21:44:04;;;;;;;21.23;11.50;;;;;;;2.56;100.00;100925.72;10434179;28;20033;-76
2022/12/25 21:49:05;;;;;;;19.13;10.50;;;;;;;2.67;100.00;100944.22;10453785;28;20067;-76
2022/12/25 21:54:06;;;;;;;18.42;9.32;;;;;;;2.53;100.00;100924.13;10455107;28;20048;-77
2022/12/25 21:59:08;;;;;;;24.33;11.55;;;;;;;2.14;100.00;100869.94;10454719;28;20397;-76
2022/12/25 22:04:09;;;;;;;21.83;10.40;;;;;;;2.57;100.00;100943.97;10452459;28;20052;-76
2022/12/25 22:09:10;;;;;;;22.02;11.27;;;;;;;2.50;100.00;100932.22;10454071;28;20040;-76
2022/12/25 22:19:42;;;;;;;22.52;11.23;;;;;;;2.52;100.00;100964.44;10453689;28;20068;-76
2022/12/25 22:24:43;;;;;;;20.13;9.80;;;;;;;2.49;100.00;100967.25;10454298;28;20076;-76
2022/12/25 22:29:44;;;;;;;22.35;10.80;;;;;;;2.35;100.00;100944.53;10455465;28;20071;-76
2022/12/25 22:34:45;;;;;;;24.08;10.10;;;;;;;2.32;100.00;100938.66;10461938;28;20052;-76
2022/12/25 22:39:46;;;;;;;21.45;9.50;;;;;;;1.90;100.00;100881.06;10459781;28;20493;-77
2022/12/25 22:44:46;;;;;;;23.10;11.23;;;;;;;2.35;100.00;100965.53;10461467;28;20443;-76
2022/12/25 22:49:47;;;;;;;24.67;10.43;;;;;;;1.90;100.00;100895.97;10460308;28;20144;-76
2022/12/25 22:54:48;;;;;;;21.08;10.50;;;;;;;2.39;100.00;100976.66;10461409;28;20139;-76
2022/12/25 22:59:51;;;;;;;23.60;9.82;;;;;;;2.31;100.00;100966.66;10460930;28;20128;-77
2022/12/25 23:04:52;;;;;;;21.08;9.88;;;;;;;2.31;100.00;100973.69;10460552;28;20095;-76
2022/12/25 23:09:53;;;;;;;25.75;9.85;;;;;;;2.29;100.00;100985.09;10460280;28;20041;-77
2022/12/25 23:14:54;;;;;;;18.95;9.00;;;;;;;1.82;100.00;100914.78;10446987;28;20401;-76
2022/12/25 23:30:36;;;;;;;22.63;10.45;;;;;;;2.24;100.00;101010.78;10459465;28;20049;-76
2022/12/25 23:35:37;;;;;;;23.48;9.38;;;;;;;2.12;100.00;100995.00;10460096;28;20044;-77
2022/12/25 23:40:37;;;;;;;22.42;9.25;;;;;;;2.17;100.00;101006.03;10458170;28;20037;-76
2022/12/25 23:45:38;;;;;;;25.58;10.32;;;;;;;2.16;100.00;101013.06;10459912;28;20045;-77
2022/12/25 23:50:39;;;;;;;27.20;10.45;;;;;;;2.11;100.00;101015.13;10458949;28;20064;-77
2022/12/25 23:55:41;;;;;;;22.17;9.60;;;;;;;2.14;100.00;101027.19;10459182;28;20123;-77
